createdAt,value
2023-05-14T00:00:40.228Z,13.35
2023-05-14T00:03:06.826Z,9.90
2023-05-14T00:05:33.350Z,11.05
2023-05-14T00:07:59.649Z,11.43
2023-05-14T00:10:27.246Z,10.40
2023-05-14T00:12:53.761Z,11.35
2023-05-14T00:15:20.056Z,14.50
2023-05-14T00:17:46.500Z,12.02
2023-05-14T00:20:12.948Z,12.45
2023-05-14T00:22:39.696Z,13.77
2023-05-14T00:25:07.897Z,10.20
2023-05-14T00:27:34.729Z,11.73
2023-05-14T00:30:01.101Z,12.25
2023-05-14T00:32:27.457Z,14.57
2023-05-14T00:34:53.766Z,13.05
2023-05-14T00:37:20.130Z,14.35
2023-05-14T00:39:46.444Z,16.17
2023-05-14T00:42:12.774Z,16.23
2023-05-14T00:44:39.083Z,15.25
2023-05-14T00:47:05.877Z,15.85
2023-05-14T00:49:32.301Z,18.70
2023-05-14T00:51:58.927Z,12.80
2023-05-14T00:54:25.492Z,15.52
2023-05-14T00:56:52.757Z,15.43
2023-05-14T00:59:19.047Z,15.88
2023-05-14T01:01:45.420Z,17.52
2023-05-14T01:04:12.377Z,13.23
2023-05-14T01:07:07.618Z,18.92
2023-05-14T01:09:49.978Z,15.35
2023-05-14T01:12:21.998Z,14.27
2023-05-14T01:14:55.011Z,12.77
2023-05-14T01:17:24.956Z,14.02
2023-05-14T01:19:51.429Z,13.25
2023-05-14T01:22:17.728Z,13.77
2023-05-14T01:24:44.042Z,15.00
2023-05-14T01:27:18.064Z,13.18
2023-05-14T01:29:53.163Z,12.27
2023-05-14T01:32:20.828Z,11.40
2023-05-14T01:34:48.465Z,12.45
2023-05-14T01:37:15.896Z,10.88
2023-05-14T01:39:42.910Z,13.10
2023-05-14T01:42:10.184Z,14.07
2023-05-14T01:44:36.488Z,15.82
2023-05-14T01:47:02.804Z,15.52
2023-05-14T01:49:29.100Z,12.18
2023-05-14T01:51:55.406Z,14.95
2023-05-14T01:54:21.696Z,12.57
2023-05-14T01:56:48.000Z,13.43
2023-05-14T01:59:14.297Z,15.43
2023-05-14T02:01:40.645Z,12.80
2023-05-14T02:04:06.957Z,14.77
2023-05-14T02:06:33.319Z,15.90
2023-05-14T02:09:00.319Z,14.85
2023-05-14T02:11:26.633Z,16.40
2023-05-14T02:13:52.980Z,12.27
2023-05-14T02:16:19.348Z,12.13
2023-05-14T02:18:45.756Z,12.93
2023-05-14T02:21:12.137Z,13.05
2023-05-14T02:23:41.976Z,12.93
2023-05-14T02:26:09.758Z,16.92
2023-05-14T02:28:36.199Z,13.20
2023-05-14T02:31:02.538Z,15.48
2023-05-14T02:33:28.947Z,12.95
2023-05-14T02:35:55.278Z,16.73
2023-05-14T02:38:22.447Z,16.35
2023-05-14T02:40:48.818Z,16.35
2023-05-14T02:43:15.135Z,13.38
2023-05-14T02:45:41.436Z,16.33
2023-05-14T02:48:07.842Z,14.48
2023-05-14T02:50:34.189Z,15.82
2023-05-14T02:53:00.489Z,14.48
2023-05-14T02:55:26.848Z,12.30
2023-05-14T02:57:53.181Z,16.33
2023-05-14T03:00:19.851Z,14.18
2023-05-14T03:02:46.538Z,16.67
2023-05-14T03:05:13.211Z,12.48
2023-05-14T03:07:39.543Z,15.55
2023-05-14T03:10:06.364Z,14.82
2023-05-14T03:12:32.669Z,20.55
2023-05-14T03:14:58.993Z,14.70
2023-05-14T03:17:25.327Z,12.90
2023-05-14T03:19:51.735Z,16.67
2023-05-14T03:22:18.124Z,12.32
2023-05-14T03:24:44.437Z,14.63
2023-05-14T03:27:10.745Z,14.73
2023-05-14T03:29:37.063Z,14.07
2023-05-14T03:32:03.596Z,15.05
2023-05-14T03:34:29.980Z,16.83
2023-05-14T03:36:56.291Z,14.13
2023-05-14T03:39:22.607Z,14.77
2023-05-14T03:41:49.125Z,15.55
2023-05-14T03:44:15.434Z,15.20
2023-05-14T03:46:41.767Z,15.45
2023-05-14T03:49:08.181Z,15.68
2023-05-14T03:51:34.538Z,15.52
2023-05-14T03:54:01.353Z,15.40
2023-05-14T03:56:27.659Z,17.30
2023-05-14T03:58:53.970Z,15.82
2023-05-14T04:01:20.267Z,17.48
2023-05-14T04:03:46.710Z,13.98
2023-05-14T04:06:13.187Z,15.60
2023-05-14T04:08:39.504Z,17.35
2023-05-14T04:11:05.959Z,16.17
2023-05-14T04:13:32.266Z,15.10
2023-05-14T04:15:58.574Z,16.40
2023-05-14T04:18:25.216Z,16.65
2023-05-14T04:20:51.541Z,15.25
2023-05-14T04:23:17.873Z,17.40
2023-05-14T04:25:44.178Z,14.18
2023-05-14T04:28:10.483Z,15.43
2023-05-14T04:30:36.792Z,17.58
2023-05-14T04:33:03.247Z,14.25
2023-05-14T04:35:29.642Z,14.00
2023-05-14T04:37:55.969Z,13.52
2023-05-14T04:40:22.539Z,13.35
2023-05-14T04:42:49.093Z,10.05
2023-05-14T04:45:15.534Z,12.07
2023-05-14T04:47:42.270Z,11.32
2023-05-14T04:50:09.540Z,12.05
2023-05-14T04:52:36.037Z,11.30
2023-05-14T04:55:02.323Z,9.48
2023-05-14T04:57:28.652Z,10.88
2023-05-14T04:59:54.969Z,11.80
2023-05-14T05:02:21.303Z,10.32
2023-05-14T05:04:47.604Z,11.80
2023-05-14T05:07:13.946Z,10.35
2023-05-14T05:09:40.511Z,10.77
2023-05-14T05:12:07.173Z,12.07
2023-05-14T05:14:33.510Z,9.98
2023-05-14T05:16:59.837Z,13.27
2023-05-14T05:19:35.921Z,10.13
2023-05-14T05:22:06.481Z,8.27
2023-05-14T05:24:32.783Z,7.43
2023-05-14T05:26:59.100Z,7.60
2023-05-14T05:29:25.401Z,7.32
2023-05-14T05:31:51.808Z,9.65
2023-05-14T05:34:18.263Z,8.43
2023-05-14T05:36:44.574Z,7.85
2023-05-14T05:39:10.885Z,9.60
2023-05-14T05:41:37.193Z,7.38
2023-05-14T05:44:03.516Z,8.75
2023-05-14T05:46:29.922Z,6.32
2023-05-14T05:48:56.346Z,6.80
2023-05-14T05:51:22.826Z,7.43
2023-05-14T05:53:49.142Z,7.18
2023-05-14T05:56:15.463Z,8.25
2023-05-14T05:58:41.758Z,7.57
2023-05-14T06:01:08.095Z,6.75
2023-05-14T06:03:34.412Z,6.60
2023-05-14T06:06:00.744Z,6.07
2023-05-14T06:08:27.058Z,6.03
2023-05-14T06:10:53.348Z,5.43
2023-05-14T06:13:19.724Z,7.05
2023-05-14T06:15:46.020Z,6.10
2023-05-14T06:18:12.343Z,4.30
2023-05-14T06:20:38.650Z,4.43
2023-05-14T06:23:04.993Z,5.80
2023-05-14T06:25:31.316Z,4.53
2023-05-14T06:27:57.643Z,5.80
2023-05-14T06:30:24.117Z,6.57
2023-05-14T06:32:50.670Z,5.93
2023-05-14T06:35:18.074Z,5.50
2023-05-14T06:37:45.046Z,5.18
2023-05-14T06:40:12.434Z,3.83
2023-05-14T06:42:38.734Z,5.18
2023-05-14T06:45:06.228Z,6.00
2023-05-14T06:47:32.588Z,4.65
2023-05-14T06:49:59.050Z,4.78
2023-05-14T06:52:25.720Z,5.18
2023-05-14T06:54:52.055Z,6.20
2023-05-14T06:57:18.352Z,4.82
2023-05-14T06:59:44.696Z,5.00
2023-05-14T07:02:11.059Z,5.57
2023-05-14T07:04:37.404Z,4.95
2023-05-14T07:07:03.952Z,4.43
2023-05-14T07:09:30.263Z,4.40
2023-05-14T07:11:56.581Z,4.75
2023-05-14T07:14:22.960Z,4.75
2023-05-14T07:16:49.322Z,4.47
2023-05-14T07:19:15.747Z,4.55
2023-05-14T07:21:42.074Z,7.45
2023-05-14T07:24:08.484Z,4.45
2023-05-14T07:26:34.854Z,6.25
2023-05-14T07:29:01.152Z,5.43
2023-05-14T07:31:27.548Z,4.35
2023-05-14T07:33:53.896Z,4.45
2023-05-14T07:36:20.817Z,5.40
2023-05-14T07:38:47.204Z,5.13
2023-05-14T07:41:13.516Z,5.05
2023-05-14T07:43:39.807Z,4.40
2023-05-14T07:46:06.191Z,6.20
2023-05-14T07:48:32.547Z,6.80
2023-05-14T07:50:58.878Z,5.10
2023-05-14T07:53:25.271Z,9.23
2023-05-14T07:55:51.637Z,7.40
2023-05-14T07:58:18.029Z,6.30
2023-05-14T08:00:44.371Z,7.80
2023-05-14T08:03:10.854Z,7.05
2023-05-14T08:05:37.311Z,6.47
2023-05-14T08:08:03.758Z,5.00
2023-05-14T08:10:30.320Z,6.22
2023-05-14T08:12:56.780Z,4.57
2023-05-14T08:15:24.580Z,4.93
2023-05-14T08:17:52.744Z,6.10
2023-05-14T08:20:19.262Z,4.68
2023-05-14T08:22:45.610Z,5.35
2023-05-14T08:25:12.070Z,4.63
2023-05-14T08:27:38.386Z,5.05
2023-05-14T08:30:05.248Z,4.38
2023-05-14T08:32:31.748Z,2.83
2023-05-14T08:34:58.111Z,5.53
2023-05-14T08:37:24.512Z,3.60
2023-05-14T08:39:50.807Z,4.25
2023-05-14T08:42:21.120Z,4.13
2023-05-14T08:45:00.000Z,2.80
2023-05-14T08:47:26.484Z,4.75
2023-05-14T08:49:58.472Z,5.32
2023-05-14T08:52:24.782Z,3.67
2023-05-14T08:54:52.857Z,2.50
2023-05-14T08:57:20.394Z,5.78
2023-05-14T08:59:46.906Z,3.33
2023-05-14T09:02:15.950Z,2.90
2023-05-14T09:04:42.548Z,5.70
2023-05-14T09:07:08.845Z,3.20
2023-05-14T09:09:35.229Z,4.15
2023-05-14T09:12:01.745Z,3.53
2023-05-14T09:14:28.098Z,3.67
2023-05-14T09:16:54.473Z,3.72
2023-05-14T09:19:21.180Z,3.95
2023-05-14T09:21:49.242Z,2.97
2023-05-14T09:24:23.312Z,3.30
2023-05-14T09:26:54.438Z,3.60
2023-05-14T09:29:20.838Z,2.90
2023-05-14T09:31:49.893Z,3.65
2023-05-14T09:34:26.041Z,3.63
2023-05-14T09:36:57.444Z,2.50
2023-05-14T09:39:25.217Z,3.60
2023-05-14T09:41:52.029Z,2.65
2023-05-14T09:44:19.396Z,3.42
2023-05-14T09:46:46.587Z,3.58
2023-05-14T09:49:13.317Z,3.75
2023-05-14T09:51:39.924Z,3.58
2023-05-14T09:54:07.410Z,3.88
2023-05-14T09:56:34.673Z,2.03
2023-05-14T09:59:01.010Z,3.47
2023-05-14T10:01:29.046Z,3.92
2023-05-14T10:03:56.318Z,3.60
2023-05-14T10:06:28.243Z,5.00
2023-05-14T10:09:02.718Z,4.10
2023-05-14T10:11:32.629Z,2.88
2023-05-14T10:14:09.078Z,5.13
2023-05-14T10:16:40.767Z,3.60
2023-05-14T10:19:12.004Z,2.47
2023-05-14T10:21:41.016Z,2.17
2023-05-14T10:24:08.720Z,4.18
2023-05-14T10:26:37.996Z,2.97
2023-05-14T10:29:09.235Z,2.70
2023-05-14T10:31:54.536Z,3.13
2023-05-14T10:34:33.210Z,2.53
2023-05-14T10:37:01.564Z,2.22
2023-05-14T10:39:51.645Z,2.47
2023-05-14T10:42:27.076Z,2.30
2023-05-14T10:44:55.793Z,3.53
2023-05-14T10:47:22.815Z,4.03
2023-05-14T10:49:49.518Z,2.45
2023-05-14T10:52:18.108Z,1.70
2023-05-14T10:54:54.005Z,1.80
2023-05-14T10:57:22.716Z,1.95
2023-05-14T10:59:51.462Z,1.67
2023-05-14T11:02:38.029Z,3.42
2023-05-14T11:05:09.674Z,2.00
2023-05-14T11:07:38.076Z,2.25
2023-05-14T11:10:09.925Z,3.08
2023-05-14T11:12:38.500Z,2.85
2023-05-14T11:15:09.833Z,2.10
2023-05-14T11:17:37.514Z,2.25
2023-05-14T11:20:04.671Z,2.83
2023-05-14T11:22:31.083Z,2.20
2023-05-14T11:24:57.464Z,2.28
2023-05-14T11:27:24.026Z,2.78
2023-05-14T11:29:50.876Z,3.47
2023-05-14T11:32:18.093Z,2.25
2023-05-14T11:34:45.527Z,3.63
2023-05-14T11:37:13.008Z,2.40
2023-05-14T11:39:39.993Z,4.13
2023-05-14T11:42:11.518Z,3.17
2023-05-14T11:44:38.700Z,1.95
2023-05-14T11:47:05.348Z,2.22
2023-05-14T11:49:31.791Z,4.40
2023-05-14T11:51:59.602Z,3.55
2023-05-14T11:54:29.774Z,2.30
2023-05-14T11:56:57.129Z,2.40
2023-05-14T11:59:31.885Z,3.38
2023-05-14T12:04:25.615Z,3.03
2023-05-14T12:06:52.946Z,2.95
2023-05-14T12:09:20.434Z,3.80
2023-05-14T12:11:48.026Z,2.25
2023-05-14T12:14:19.781Z,2.20
2023-05-14T12:16:47.463Z,2.20
2023-05-14T12:19:19.380Z,2.13
2023-05-14T12:21:48.176Z,2.40
2023-05-14T12:24:17.954Z,2.53
2023-05-14T12:26:48.004Z,2.97
2023-05-14T12:29:15.585Z,2.20
2023-05-14T12:31:43.651Z,2.30
2023-05-14T12:34:09.960Z,2.35
2023-05-14T12:36:36.305Z,2.03
2023-05-14T12:39:02.826Z,2.13
2023-05-14T12:41:30.571Z,3.35
2023-05-14T12:43:57.754Z,2.33
2023-05-14T12:46:26.027Z,2.38
2023-05-14T12:48:53.512Z,2.55
2023-05-14T12:51:20.400Z,2.40
2023-05-14T12:53:46.987Z,3.00
2023-05-14T12:56:13.665Z,2.58
2023-05-14T12:58:40.218Z,2.90
2023-05-14T13:01:06.653Z,2.42
2023-05-14T13:03:33.158Z,1.92
2023-05-14T13:05:59.534Z,4.28
2023-05-14T13:08:26.224Z,1.90
2023-05-14T13:10:53.881Z,1.85
2023-05-14T13:13:20.244Z,1.63
2023-05-14T13:15:46.723Z,3.45
2023-05-14T13:18:17.478Z,1.85
2023-05-14T13:20:45.930Z,2.17
2023-05-14T13:23:12.233Z,2.30
2023-05-14T13:25:38.573Z,2.70
2023-05-14T13:28:05.016Z,2.40
2023-05-14T13:30:31.455Z,2.30
2023-05-14T13:32:59.887Z,4.05
2023-05-14T13:35:26.415Z,1.70
2023-05-14T13:37:52.897Z,5.53
2023-05-14T13:40:19.284Z,2.10
2023-05-14T13:42:45.591Z,2.20
2023-05-14T13:45:12.552Z,2.65
2023-05-14T13:47:40.242Z,3.83
2023-05-14T13:50:07.609Z,2.40
2023-05-14T13:52:33.934Z,2.95
2023-05-14T13:55:00.273Z,2.20
2023-05-14T13:57:26.579Z,2.83
2023-05-14T13:59:52.949Z,2.05
2023-05-14T14:02:19.240Z,2.58
2023-05-14T14:04:45.587Z,2.90
2023-05-14T14:07:11.928Z,2.95
2023-05-14T14:09:38.257Z,2.65
2023-05-14T14:12:05.127Z,2.42
2023-05-14T14:14:31.579Z,3.38
2023-05-14T14:16:57.921Z,3.80
2023-05-14T14:19:24.276Z,2.53
2023-05-14T14:24:21.831Z,2.80
2023-05-14T14:26:48.157Z,1.95
2023-05-14T14:29:14.522Z,1.83
2023-05-14T14:31:40.937Z,2.10
2023-05-14T14:34:07.269Z,4.00
2023-05-14T14:36:33.588Z,2.10
2023-05-14T14:38:59.918Z,2.70
2023-05-14T14:41:26.236Z,2.42
2023-05-14T14:43:52.564Z,2.10
2023-05-14T14:46:18.950Z,2.55
2023-05-14T14:48:45.277Z,2.38
2023-05-14T14:51:11.595Z,1.95
2023-05-14T14:53:37.917Z,1.70
2023-05-14T14:56:04.738Z,1.83
2023-05-14T14:58:31.197Z,3.08
2023-05-14T15:00:58.239Z,2.22
2023-05-14T15:03:25.112Z,2.42
2023-05-14T15:05:51.893Z,2.42
2023-05-14T15:08:18.216Z,2.22
2023-05-14T15:10:45.103Z,3.05
2023-05-14T15:13:12.562Z,2.58
2023-05-14T15:15:38.846Z,3.10
2023-05-14T15:18:05.317Z,3.63
2023-05-14T15:20:31.670Z,3.45
2023-05-14T15:22:58.037Z,2.63
2023-05-14T15:25:25.413Z,3.05
2023-05-14T15:27:52.002Z,3.13
2023-05-14T15:30:19.570Z,3.30
2023-05-14T15:32:46.080Z,3.80
2023-05-14T15:35:12.659Z,2.10
2023-05-14T15:37:41.541Z,2.08
2023-05-14T15:40:08.743Z,5.10
2023-05-14T15:42:39.568Z,3.70
2023-05-14T15:45:06.209Z,4.20
2023-05-14T15:47:32.636Z,3.60
2023-05-14T15:49:59.517Z,3.72
2023-05-14T15:52:26.271Z,2.80
2023-05-14T15:54:52.662Z,3.08
2023-05-14T15:57:20.120Z,3.10
2023-05-14T15:59:47.220Z,2.85
2023-05-14T16:02:14.684Z,2.75
2023-05-14T16:04:41.165Z,4.53
2023-05-14T16:07:09.641Z,3.88
2023-05-14T16:09:36.703Z,3.30
2023-05-14T16:12:03.275Z,4.30
2023-05-14T16:14:29.692Z,5.22
2023-05-14T16:16:56.188Z,4.22
2023-05-14T16:19:23.514Z,2.92
2023-05-14T16:21:49.944Z,3.42
2023-05-14T16:24:18.443Z,2.67
2023-05-14T16:26:45.293Z,3.40
2023-05-14T16:29:11.924Z,3.90
2023-05-14T16:31:38.437Z,4.25
2023-05-14T16:34:04.835Z,4.25
2023-05-14T16:36:31.223Z,4.55
2023-05-14T16:39:07.281Z,5.68
2023-05-14T16:41:35.404Z,5.70
2023-05-14T16:44:01.842Z,4.07
2023-05-14T16:46:28.539Z,4.07
2023-05-14T16:48:54.997Z,3.08
2023-05-14T16:51:21.305Z,2.50
2023-05-14T16:53:47.620Z,3.13
2023-05-14T16:56:14.018Z,3.58
2023-05-14T16:58:40.316Z,3.92
2023-05-14T17:01:09.417Z,2.42
2023-05-14T17:03:36.215Z,2.33
2023-05-14T17:06:02.592Z,4.78
2023-05-14T17:08:28.930Z,3.38
2023-05-14T17:10:55.245Z,4.32
2023-05-14T17:13:21.572Z,2.55
2023-05-14T17:15:47.874Z,2.75
2023-05-14T17:18:14.221Z,5.05
2023-05-14T17:20:40.576Z,3.17
2023-05-14T17:23:06.869Z,2.97
2023-05-14T17:25:33.251Z,2.33
2023-05-14T17:27:59.549Z,5.60
2023-05-14T17:30:25.940Z,3.47
2023-05-14T17:32:52.345Z,2.65
2023-05-14T17:35:18.681Z,3.13
2023-05-14T17:37:45.043Z,3.88
2023-05-14T17:40:11.869Z,3.17
2023-05-14T17:42:38.187Z,3.45
2023-05-14T17:45:04.944Z,5.20
2023-05-14T17:47:31.313Z,4.22
2023-05-14T17:49:57.697Z,3.28
2023-05-14T17:52:24.067Z,4.75
2023-05-14T17:54:50.398Z,6.43
2023-05-14T17:57:16.890Z,6.03
2023-05-14T17:59:43.236Z,7.55
2023-05-14T18:02:09.598Z,9.35
2023-05-14T18:04:35.897Z,19.35
2023-05-14T18:07:02.374Z,8.60
2023-05-14T18:09:28.696Z,11.52
2023-05-14T18:11:56.902Z,8.82
2023-05-14T18:14:23.497Z,6.50
2023-05-14T18:16:49.962Z,10.25
2023-05-14T18:19:16.352Z,10.68
2023-05-14T18:21:42.669Z,8.75
2023-05-14T18:24:09.027Z,9.45
2023-05-14T18:26:35.414Z,9.95
2023-05-14T18:29:01.799Z,7.18
2023-05-14T18:31:28.327Z,11.85
2023-05-14T18:33:54.855Z,8.82
2023-05-14T18:36:21.241Z,9.20
2023-05-14T18:38:47.615Z,11.52
2023-05-14T18:41:14.007Z,13.05
2023-05-14T18:43:40.300Z,10.73
2023-05-14T18:46:06.647Z,12.75
2023-05-14T18:48:32.979Z,8.55
2023-05-14T18:51:00.710Z,9.38
2023-05-14T18:53:27.027Z,8.65
2023-05-14T18:55:53.320Z,10.82
2023-05-14T18:58:19.674Z,8.77
2023-05-14T19:00:46.304Z,8.35
2023-05-14T19:03:12.677Z,9.05
2023-05-14T19:05:39.130Z,13.45
2023-05-14T19:08:06.359Z,10.93
2023-05-14T19:10:32.713Z,10.80
2023-05-14T19:12:59.172Z,8.50
2023-05-14T19:15:25.826Z,9.70
2023-05-14T19:17:52.600Z,8.10
2023-05-14T19:20:19.236Z,10.55
2023-05-14T19:22:45.600Z,8.07
2023-05-14T19:25:11.991Z,9.20
2023-05-14T19:27:38.449Z,10.15
2023-05-14T19:30:05.426Z,9.00
2023-05-14T19:32:31.783Z,8.90
2023-05-14T19:34:58.134Z,10.75
2023-05-14T19:37:24.453Z,10.07
2023-05-14T19:39:50.826Z,7.90
2023-05-14T19:42:17.234Z,9.63
2023-05-14T19:44:43.544Z,11.13
2023-05-14T19:47:10.027Z,10.63
2023-05-14T19:49:36.524Z,13.02
2023-05-14T19:52:02.866Z,12.07
2023-05-14T19:54:29.185Z,11.13
2023-05-14T19:56:55.512Z,10.65
2023-05-14T19:59:21.844Z,13.30
2023-05-14T20:01:48.158Z,11.73
2023-05-14T20:04:14.504Z,12.65
2023-05-14T20:06:40.849Z,15.30
2023-05-14T20:09:07.149Z,13.98
2023-05-14T20:11:33.476Z,17.77
2023-05-14T20:13:59.775Z,14.15
2023-05-14T20:16:26.182Z,13.98
2023-05-14T20:18:53.394Z,12.98
2023-05-14T20:21:19.768Z,13.10
2023-05-14T20:23:46.132Z,12.75
2023-05-14T20:26:12.452Z,14.65
2023-05-14T20:28:38.797Z,13.45
2023-05-14T20:31:07.987Z,12.85
2023-05-14T20:33:34.604Z,12.43
2023-05-14T20:36:01.046Z,15.30
2023-05-14T20:38:27.364Z,17.70
2023-05-14T20:40:53.653Z,15.68
2023-05-14T20:43:19.966Z,13.80
2023-05-14T20:45:46.296Z,14.95
2023-05-14T20:48:12.720Z,15.48
2023-05-14T20:50:42.399Z,16.27
2023-05-14T20:53:08.710Z,13.38
2023-05-14T20:55:35.037Z,15.68
2023-05-14T20:58:01.360Z,15.65
2023-05-14T21:00:27.756Z,15.00
2023-05-14T21:02:54.157Z,15.00
2023-05-14T21:05:20.542Z,17.77
2023-05-14T21:07:46.877Z,14.75
2023-05-14T21:10:13.326Z,12.63
2023-05-14T21:12:39.659Z,14.02
2023-05-14T21:15:06.512Z,14.23
2023-05-14T21:17:32.857Z,14.07
2023-05-14T21:19:59.196Z,13.10
2023-05-14T21:22:27.185Z,13.85
2023-05-14T21:24:55.275Z,15.18
2023-05-14T21:27:22.065Z,13.98
2023-05-14T21:29:48.387Z,12.57
2023-05-14T21:32:14.706Z,17.92
2023-05-14T21:34:41.046Z,12.90
2023-05-14T21:37:07.418Z,14.00
2023-05-14T21:39:33.810Z,13.82
2023-05-14T21:42:00.126Z,12.88
2023-05-14T21:44:26.449Z,14.88
2023-05-14T21:46:52.775Z,16.27
2023-05-14T21:49:19.099Z,13.57
2023-05-14T21:51:45.434Z,18.20
2023-05-14T21:54:11.754Z,15.77
2023-05-14T21:56:38.169Z,16.70
2023-05-14T21:59:04.461Z,13.20
2023-05-14T22:01:30.980Z,13.77
2023-05-14T22:03:58.183Z,13.82
2023-05-14T22:06:24.693Z,15.52
2023-05-14T22:08:51.052Z,15.23
2023-05-14T22:11:17.370Z,17.92
2023-05-14T22:13:43.700Z,16.13
2023-05-14T22:16:13.236Z,16.35
2023-05-14T22:18:40.536Z,14.82
2023-05-14T22:21:06.861Z,15.82
2023-05-14T22:23:33.222Z,17.67
2023-05-14T22:25:59.574Z,15.80
2023-05-14T22:28:26.037Z,20.30
2023-05-14T22:30:52.459Z,18.00
2023-05-14T22:33:18.773Z,22.15
2023-05-14T22:35:45.090Z,18.90
2023-05-14T22:38:12.405Z,20.83
2023-05-14T22:40:38.756Z,22.63
2023-05-14T22:43:05.077Z,21.13
2023-05-14T22:45:31.412Z,19.67
2023-05-14T22:47:58.327Z,19.85
2023-05-14T22:50:24.663Z,19.88
2023-05-14T22:52:50.973Z,21.27
2023-05-14T22:55:17.403Z,23.17
2023-05-14T22:57:43.809Z,22.08
2023-05-14T23:00:10.744Z,20.92
2023-05-14T23:02:37.085Z,18.80
2023-05-14T23:05:03.697Z,19.63
2023-05-14T23:07:30.015Z,21.60
2023-05-14T23:09:56.428Z,19.58
2023-05-14T23:12:22.769Z,19.42
2023-05-14T23:14:49.076Z,19.02
2023-05-14T23:17:17.085Z,18.33
2023-05-14T23:19:43.430Z,17.27
2023-05-14T23:22:09.771Z,19.08
2023-05-14T23:24:36.103Z,18.27
2023-05-14T23:27:02.425Z,17.08
2023-05-14T23:29:28.835Z,20.60
2023-05-14T23:31:55.239Z,20.55
2023-05-14T23:34:21.596Z,19.10
2023-05-14T23:36:48.151Z,19.10
2023-05-14T23:39:14.578Z,21.17
2023-05-14T23:41:40.875Z,20.55
2023-05-14T23:44:07.236Z,18.63
2023-05-14T23:46:33.672Z,20.23
2023-05-14T23:49:01.105Z,20.05
2023-05-14T23:51:27.523Z,17.77
2023-05-14T23:53:53.920Z,17.27
2023-05-14T23:56:20.287Z,16.88
2023-05-14T23:58:46.611Z,17.00
